sensor_id;sensor_type;location;lat;lon;timestamp;pressure;altitude;pressure_sealevel;temperature;humidity
35676;BME280;21790;42.668;23.298;2022-07-17T00:02:22;95071.13;;;28.46;37.94
35676;BME280;21790;42.668;23.298;2022-07-17T00:04:47;95074.34;;;28.50;38.06
35676;BME280;21790;42.668;23.298;2022-07-17T00:07:13;95081.75;;;28.38;38.26
35676;BME280;21790;42.668;23.298;2022-07-17T00:09:38;95084.97;;;28.42;38.00
35676;BME280;21790;42.668;23.298;2022-07-17T00:12:04;95088.59;;;28.35;38.21
35676;BME280;21790;42.668;23.298;2022-07-17T00:14:29;95084.78;;;28.40;38.29
35676;BME280;21790;42.668;23.298;2022-07-17T00:16:55;95080.63;;;28.34;38.35
35676;BME280;21790;42.668;23.298;2022-07-17T00:19:23;95085.91;;;28.37;38.34
35676;BME280;21790;42.668;23.298;2022-07-17T00:21:49;95091.03;;;28.39;38.24
35676;BME280;21790;42.668;23.298;2022-07-17T00:24:15;95094.63;;;28.47;38.23
35676;BME280;21790;42.668;23.298;2022-07-17T00:26:46;95087.06;;;28.34;38.52
35676;BME280;21790;42.668;23.298;2022-07-17T00:29:12;95091.25;;;28.18;38.34
35676;BME280;21790;42.668;23.298;2022-07-17T00:31:38;95089.75;;;28.24;38.71
35676;BME280;21790;42.668;23.298;2022-07-17T00:34:03;95090.09;;;28.21;38.35
35676;BME280;21790;42.668;23.298;2022-07-17T00:36:29;95090.09;;;28.21;38.30
35676;BME280;21790;42.668;23.298;2022-07-17T00:38:55;95100.13;;;28.07;38.48
35676;BME280;21790;42.668;23.298;2022-07-17T00:41:21;95091.25;;;28.03;38.51
35676;BME280;21790;42.668;23.298;2022-07-17T00:43:47;95095.41;;;28.09;38.48
35676;BME280;21790;42.668;23.298;2022-07-17T00:46:12;95085.94;;;28.07;38.28
35676;BME280;21790;42.668;23.298;2022-07-17T00:48:38;95089.75;;;28.17;38.19
35676;BME280;21790;42.668;23.298;2022-07-17T00:51:03;95095.59;;;28.11;38.12
35676;BME280;21790;42.668;23.298;2022-07-17T00:53:32;95092.38;;;28.22;37.92
35676;BME280;21790;42.668;23.298;2022-07-17T00:56:01;95099.59;;;28.16;37.85
35676;BME280;21790;42.668;23.298;2022-07-17T00:58:28;95106.78;;;28.02;38.22
35676;BME280;21790;42.668;23.298;2022-07-17T01:00:54;95102.41;;;28.01;37.94
35676;BME280;21790;42.668;23.298;2022-07-17T01:03:22;95103.34;;;27.96;38.11
35676;BME280;21790;42.668;23.298;2022-07-17T01:05:47;95105.44;;;27.87;38.26
35676;BME280;21790;42.668;23.298;2022-07-17T01:08:13;95110.56;;;27.97;38.13
35676;BME280;21790;42.668;23.298;2022-07-17T01:10:40;95113.00;;;27.85;38.41
35676;BME280;21790;42.668;23.298;2022-07-17T01:13:06;95104.66;;;27.79;38.46
35676;BME280;21790;42.668;23.298;2022-07-17T01:15:34;95113.94;;;27.80;38.46
35676;BME280;21790;42.668;23.298;2022-07-17T01:18:04;95109.03;;;27.80;38.71
35676;BME280;21790;42.668;23.298;2022-07-17T01:20:30;95100.09;;;27.61;38.78
35676;BME280;21790;42.668;23.298;2022-07-17T01:22:55;95112.06;;;27.75;38.39
35676;BME280;21790;42.668;23.298;2022-07-17T01:25:23;95105.63;;;27.74;38.22
35676;BME280;21790;42.668;23.298;2022-07-17T01:27:49;95100.50;;;27.73;38.29
35676;BME280;21790;42.668;23.298;2022-07-17T01:30:15;95105.25;;;27.70;38.34
35676;BME280;21790;42.668;23.298;2022-07-17T01:32:42;95097.66;;;27.65;38.58
35676;BME280;21790;42.668;23.298;2022-07-17T01:35:09;95103.69;;;27.54;38.43
35676;BME280;21790;42.668;23.298;2022-07-17T01:37:36;95091.22;;;27.65;37.91
35676;BME280;21790;42.668;23.298;2022-07-17T01:40:02;95097.66;;;27.65;37.77
35676;BME280;21790;42.668;23.298;2022-07-17T01:42:28;95105.63;;;27.74;37.57
35676;BME280;21790;42.668;23.298;2022-07-17T01:44:55;95100.28;;;27.56;38.39
35676;BME280;21790;42.668;23.298;2022-07-17T01:47:21;95103.50;;;27.52;38.08
35676;BME280;21790;42.668;23.298;2022-07-17T01:49:55;95098.38;;;27.51;38.12
35676;BME280;21790;42.668;23.298;2022-07-17T01:52:22;95093.59;;;27.38;38.18
35676;BME280;21790;42.668;23.298;2022-07-17T01:54:48;95107.38;;;27.34;38.21
35676;BME280;21790;42.668;23.298;2022-07-17T01:57:13;95099.66;;;27.49;38.17
35676;BME280;21790;42.668;23.298;2022-07-17T01:59:39;95106.91;;;27.58;37.86
35676;BME280;21790;42.668;23.298;2022-07-17T02:02:06;95104.47;;;27.70;37.92
35676;BME280;21790;42.668;23.298;2022-07-17T02:04:35;95112.81;;;27.75;37.75
35676;BME280;21790;42.668;23.298;2022-07-17T02:07:01;95116.94;;;27.67;37.79
35676;BME280;21790;42.668;23.298;2022-07-17T02:09:26;95109.00;;;27.65;37.44
35676;BME280;21790;42.668;23.298;2022-07-17T02:11:52;95110.47;;;27.51;37.82
35676;BME280;21790;42.668;23.298;2022-07-17T02:14:17;95111.63;;;27.56;37.50
35676;BME280;21790;42.668;23.298;2022-07-17T02:16:43;95105.59;;;27.59;37.52
35676;BME280;21790;42.668;23.298;2022-07-17T02:19:10;95111.44;;;27.54;37.26
35676;BME280;21790;42.668;23.298;2022-07-17T02:21:36;95111.94;;;27.44;37.35
35676;BME280;21790;42.668;23.298;2022-07-17T02:24:02;95114.41;;;27.33;37.50
35676;BME280;21790;42.668;23.298;2022-07-17T02:26:28;95108.47;;;27.23;38.01
35676;BME280;21790;42.668;23.298;2022-07-17T02:28:53;95109.44;;;27.26;37.83
35676;BME280;21790;42.668;23.298;2022-07-17T02:31:19;95114.56;;;27.27;37.79
35676;BME280;21790;42.668;23.298;2022-07-17T02:33:45;95103.91;;;27.13;38.12
35676;BME280;21790;42.668;23.298;2022-07-17T02:36:10;95118.47;;;27.17;38.02
35676;BME280;21790;42.668;23.298;2022-07-17T02:38:36;95111.44;;;27.02;38.09
35676;BME280;21790;42.668;23.298;2022-07-17T02:41:01;95109.56;;;27.05;37.88
35676;BME280;21790;42.668;23.298;2022-07-17T02:43:27;95110.34;;;27.13;38.08
35676;BME280;21790;42.668;23.298;2022-07-17T02:45:52;95116.34;;;27.02;38.13
35676;BME280;21790;42.668;23.298;2022-07-17T02:48:18;95120.13;;;26.97;38.23
35676;BME280;21790;42.668;23.298;2022-07-17T02:50:43;95113.13;;;26.98;38.32
35676;BME280;21790;42.668;23.298;2022-07-17T02:53:09;95127.47;;;26.92;37.79
35676;BME280;21790;42.668;23.298;2022-07-17T02:55:34;95124.72;;;26.79;38.43
35676;BME280;21790;42.668;23.298;2022-07-17T02:58:00;95120.34;;;26.71;38.58
35676;BME280;21790;42.668;23.298;2022-07-17T03:00:25;95126.06;;;26.86;38.80
35676;BME280;21790;42.668;23.298;2022-07-17T03:02:52;95130.69;;;26.96;38.48
35676;BME280;21790;42.668;23.298;2022-07-17T03:05:19;95133.03;;;26.77;38.49
35676;BME280;21790;42.668;23.298;2022-07-17T03:07:45;95136.59;;;26.70;38.91
35676;BME280;21790;42.668;23.298;2022-07-17T03:10:12;95133.53;;;26.68;38.94
35676;BME280;21790;42.668;23.298;2022-07-17T03:12:38;95138.06;;;26.63;38.69
35676;BME280;21790;42.668;23.298;2022-07-17T03:15:05;95138.25;;;26.65;38.75
35676;BME280;21790;42.668;23.298;2022-07-17T03:17:31;95145.41;;;26.59;38.92
35676;BME280;21790;42.668;23.298;2022-07-17T03:19:56;95146.09;;;26.52;39.09
35676;BME280;21790;42.668;23.298;2022-07-17T03:22:22;95154.50;;;26.65;39.02
35676;BME280;21790;42.668;23.298;2022-07-17T03:24:48;95153.19;;;26.66;38.82
35676;BME280;21790;42.668;23.298;2022-07-17T03:27:13;95148.31;;;26.74;39.13
35676;BME280;21790;42.668;23.298;2022-07-17T03:29:39;95149.78;;;26.67;39.23
35676;BME280;21790;42.668;23.298;2022-07-17T03:32:05;95155.06;;;26.63;39.38
35676;BME280;21790;42.668;23.298;2022-07-17T03:34:30;95160.03;;;26.71;39.26
35676;BME280;21790;42.668;23.298;2022-07-17T03:36:56;95163.03;;;26.65;39.60
35676;BME280;21790;42.668;23.298;2022-07-17T03:39:21;95175.47;;;26.62;40.16
35676;BME280;21790;42.668;23.298;2022-07-17T03:41:47;95176.06;;;26.68;40.10
35676;BME280;21790;42.668;23.298;2022-07-17T03:44:13;95181.16;;;26.62;40.19
35676;BME280;21790;42.668;23.298;2022-07-17T03:46:38;95176.34;;;26.78;40.35
35676;BME280;21790;42.668;23.298;2022-07-17T03:49:04;95170.66;;;26.78;40.60
35676;BME280;21790;42.668;23.298;2022-07-17T03:51:29;95173.66;;;26.72;40.92
35676;BME280;21790;42.668;23.298;2022-07-17T03:53:55;95172.38;;;26.81;40.31
35676;BME280;21790;42.668;23.298;2022-07-17T03:56:20;95178.56;;;26.72;40.36
35676;BME280;21790;42.668;23.298;2022-07-17T03:58:46;95191.06;;;26.76;41.04
35676;BME280;21790;42.668;23.298;2022-07-17T04:01:11;95188.84;;;26.82;40.03
35676;BME280;21790;42.668;23.298;2022-07-17T04:03:37;95192.84;;;26.87;40.28
35676;BME280;21790;42.668;23.298;2022-07-17T04:06:02;95199.63;;;26.84;39.54
35676;BME280;21790;42.668;23.298;2022-07-17T04:08:28;95189.72;;;26.98;39.77
35676;BME280;21790;42.668;23.298;2022-07-17T04:10:54;95193.50;;;27.00;39.46
35676;BME280;21790;42.668;23.298;2022-07-17T04:13:20;95194.50;;;27.11;39.53
35676;BME280;21790;42.668;23.298;2022-07-17T04:15:45;95197.31;;;27.03;39.74
35676;BME280;21790;42.668;23.298;2022-07-17T04:18:27;95209.88;;;27.23;39.02
35676;BME280;21790;42.668;23.298;2022-07-17T04:20:54;95212.94;;;27.25;38.82
35676;BME280;21790;42.668;23.298;2022-07-17T04:23:20;95219.81;;;27.37;38.23
35676;BME280;21790;42.668;23.298;2022-07-17T04:25:46;95217.59;;;27.51;37.66
35676;BME280;21790;42.668;23.298;2022-07-17T04:28:12;95211.22;;;27.65;37.78
35676;BME280;21790;42.668;23.298;2022-07-17T04:30:38;95215.44;;;27.79;37.67
35676;BME280;21790;42.668;23.298;2022-07-17T04:33:03;95210.13;;;27.83;37.56
35676;BME280;21790;42.668;23.298;2022-07-17T04:35:29;95219.81;;;27.96;36.82
35676;BME280;21790;42.668;23.298;2022-07-17T04:37:55;95217.94;;;28.06;37.05
35676;BME280;21790;42.668;23.298;2022-07-17T04:40:21;95222.69;;;28.11;37.03
35676;BME280;21790;42.668;23.298;2022-07-17T04:42:46;95225.75;;;28.13;36.71
35676;BME280;21790;42.668;23.298;2022-07-17T04:45:13;95226.34;;;28.19;36.56
35676;BME280;21790;42.668;23.298;2022-07-17T04:47:40;95223.13;;;28.30;36.76
35676;BME280;21790;42.668;23.298;2022-07-17T04:50:06;95234.13;;;28.56;36.58
35676;BME280;21790;42.668;23.298;2022-07-17T04:52:32;95229.41;;;28.66;36.35
35676;BME280;21790;42.668;23.298;2022-07-17T04:54:58;95228.06;;;28.75;35.66
35676;BME280;21790;42.668;23.298;2022-07-17T04:57:23;95232.41;;;28.99;35.63
35676;BME280;21790;42.668;23.298;2022-07-17T04:59:48;95247.53;;;29.24;36.19
35676;BME280;21790;42.668;23.298;2022-07-17T05:02:14;95248.50;;;29.34;35.65
35676;BME280;21790;42.668;23.298;2022-07-17T05:04:40;95240.88;;;29.44;35.22
35676;BME280;21790;42.668;23.298;2022-07-17T05:07:06;95259.66;;;29.55;34.87
35676;BME280;21790;42.668;23.298;2022-07-17T05:09:33;95248.69;;;29.13;34.80
35676;BME280;21790;42.668;23.298;2022-07-17T05:11:59;95262.56;;;29.32;33.95
35676;BME280;21790;42.668;23.298;2022-07-17T05:14:26;95251.47;;;29.51;32.23
35676;BME280;21790;42.668;23.298;2022-07-17T05:16:52;95250.16;;;29.52;32.47
35676;BME280;21790;42.668;23.298;2022-07-17T05:19:17;95241.31;;;29.33;32.74
35676;BME280;21790;42.668;23.298;2022-07-17T05:21:43;95252.63;;;29.48;31.58
35676;BME280;21790;42.668;23.298;2022-07-17T05:24:08;95251.06;;;29.63;30.27
35676;BME280;21790;42.668;23.298;2022-07-17T05:26:34;95256.47;;;29.36;30.21
35676;BME280;21790;42.668;23.298;2022-07-17T05:28:59;95255.25;;;29.62;31.53
35676;BME280;21790;42.668;23.298;2022-07-17T05:31:25;95262.78;;;29.74;30.42
35676;BME280;21790;42.668;23.298;2022-07-17T05:33:50;95268.25;;;29.87;29.94
35676;BME280;21790;42.668;23.298;2022-07-17T05:36:16;95256.22;;;30.04;29.82
35676;BME280;21790;42.668;23.298;2022-07-17T05:38:41;95255.47;;;30.04;29.27
35676;BME280;21790;42.668;23.298;2022-07-17T05:41:07;95258.25;;;30.11;29.10
35676;BME280;21790;42.668;23.298;2022-07-17T05:43:32;95268.81;;;29.86;29.26
35676;BME280;21790;42.668;23.298;2022-07-17T05:45:58;95256.44;;;29.51;29.54
35676;BME280;21790;42.668;23.298;2022-07-17T05:48:25;95262.56;;;29.32;29.75
35676;BME280;21790;42.668;23.298;2022-07-17T05:50:51;95259.16;;;29.34;29.88
35676;BME280;21790;42.668;23.298;2022-07-17T05:53:17;95259.25;;;29.59;29.71
35676;BME280;21790;42.668;23.298;2022-07-17T05:55:42;95262.06;;;29.66;29.89
35676;BME280;21790;42.668;23.298;2022-07-17T05:58:08;95268.28;;;29.80;29.77
35676;BME280;21790;42.668;23.298;2022-07-17T06:00:35;95253.06;;;29.92;29.45
35676;BME280;21790;42.668;23.298;2022-07-17T06:03:01;95262.63;;;30.12;28.77
35676;BME280;21790;42.668;23.298;2022-07-17T06:05:26;95270.72;;;30.23;28.85
35676;BME280;21790;42.668;23.298;2022-07-17T06:07:56;95265.56;;;30.29;29.57
35676;BME280;21790;42.668;23.298;2022-07-17T06:10:22;95267.41;;;30.42;28.40
35676;BME280;21790;42.668;23.298;2022-07-17T06:12:48;95277.63;;;30.45;28.48
35676;BME280;21790;42.668;23.298;2022-07-17T06:15:14;95266.91;;;30.61;28.66
35676;BME280;21790;42.668;23.298;2022-07-17T06:17:40;95268.72;;;30.73;28.62
35676;BME280;21790;42.668;23.298;2022-07-17T06:20:06;95271.13;;;30.77;28.59
35676;BME280;21790;42.668;23.298;2022-07-17T06:22:32;95268.28;;;30.77;28.20
35676;BME280;21790;42.668;23.298;2022-07-17T06:24:57;95276.28;;;30.79;28.38
35676;BME280;21790;42.668;23.298;2022-07-17T06:27:23;95280.59;;;30.87;28.75
35676;BME280;21790;42.668;23.298;2022-07-17T06:29:49;95286.41;;;30.97;28.63
35676;BME280;21790;42.668;23.298;2022-07-17T06:32:15;95280.25;;;31.08;27.81
35676;BME280;21790;42.668;23.298;2022-07-17T06:34:40;95272.59;;;31.10;27.60
35676;BME280;21790;42.668;23.298;2022-07-17T06:37:06;95283.19;;;31.17;28.08
35676;BME280;21790;42.668;23.298;2022-07-17T06:39:31;95277.41;;;31.25;27.90
35676;BME280;21790;42.668;23.298;2022-07-17T06:41:57;95279.81;;;31.11;27.80
35676;BME280;21790;42.668;23.298;2022-07-17T06:44:23;95275.97;;;31.16;27.86
35676;BME280;21790;42.668;23.298;2022-07-17T06:46:48;95279.34;;;31.23;28.17
35676;BME280;21790;42.668;23.298;2022-07-17T06:49:14;95272.31;;;31.41;28.53
35676;BME280;21790;42.668;23.298;2022-07-17T06:51:40;95277.94;;;31.31;27.82
35676;BME280;21790;42.668;23.298;2022-07-17T06:54:05;95282.22;;;31.40;27.79
35676;BME280;21790;42.668;23.298;2022-07-17T06:56:31;95286.78;;;31.60;27.88
35676;BME280;21790;42.668;23.298;2022-07-17T06:58:57;95284.25;;;31.64;27.80
35676;BME280;21790;42.668;23.298;2022-07-17T07:01:22;95290.66;;;31.72;27.98
35676;BME280;21790;42.668;23.298;2022-07-17T07:03:48;95282.00;;;31.80;27.38
35676;BME280;21790;42.668;23.298;2022-07-17T07:06:13;95280.53;;;31.88;27.29
35676;BME280;21790;42.668;23.298;2022-07-17T07:08:39;95283.16;;;31.94;27.66
35676;BME280;21790;42.668;23.298;2022-07-17T07:11:04;95285.75;;;31.99;27.34
35676;BME280;21790;42.668;23.298;2022-07-17T07:13:30;95286.91;;;32.14;27.78
35676;BME280;21790;42.668;23.298;2022-07-17T07:15:55;95282.88;;;32.17;27.42
35676;BME280;21790;42.668;23.298;2022-07-17T07:18:22;95276.94;;;32.32;27.57
35676;BME280;21790;42.668;23.298;2022-07-17T07:20:47;95278.16;;;32.29;28.21
35676;BME280;21790;42.668;23.298;2022-07-17T07:23:13;95294.31;;;32.44;26.74
35676;BME280;21790;42.668;23.298;2022-07-17T07:25:39;95289.06;;;32.40;26.77
35676;BME280;21790;42.668;23.298;2022-07-17T07:28:05;95295.09;;;32.44;27.33
35676;BME280;21790;42.668;23.298;2022-07-17T07:30:31;95292.84;;;32.52;26.99
35676;BME280;21790;42.668;23.298;2022-07-17T07:32:57;95289.50;;;32.19;27.38
35676;BME280;21790;42.668;23.298;2022-07-17T07:35:22;95295.78;;;32.35;27.53
35676;BME280;21790;42.668;23.298;2022-07-17T07:37:48;95298.44;;;32.50;27.41
35676;BME280;21790;42.668;23.298;2022-07-17T07:40:13;95297.41;;;32.55;26.60
35676;BME280;21790;42.668;23.298;2022-07-17T07:42:39;95294.41;;;32.63;26.42
35676;BME280;21790;42.668;23.298;2022-07-17T07:45:05;95294.53;;;32.55;27.13
35676;BME280;21790;42.668;23.298;2022-07-17T07:47:31;95294.22;;;32.78;27.24
35676;BME280;21790;42.668;23.298;2022-07-17T07:49:57;95293.31;;;32.49;27.17
35676;BME280;21790;42.668;23.298;2022-07-17T07:52:28;95286.78;;;32.65;27.06
35676;BME280;21790;42.668;23.298;2022-07-17T07:54:54;95287.88;;;32.79;27.14
35676;BME280;21790;42.668;23.298;2022-07-17T07:57:20;95290.66;;;32.87;25.89
35676;BME280;21790;42.668;23.298;2022-07-17T07:59:46;95293.78;;;32.82;26.73
35676;BME280;21790;42.668;23.298;2022-07-17T08:02:12;95290.66;;;32.97;26.51
35676;BME280;21790;42.668;23.298;2022-07-17T08:04:38;95292.41;;;33.19;26.59
35676;BME280;21790;42.668;23.298;2022-07-17T08:07:04;95284.16;;;32.87;26.46
35676;BME280;21790;42.668;23.298;2022-07-17T08:09:29;95295.69;;;33.06;26.13
35676;BME280;21790;42.668;23.298;2022-07-17T08:11:56;95287.97;;;32.99;25.95
35676;BME280;21790;42.668;23.298;2022-07-17T08:14:21;95294.28;;;32.97;25.92
35676;BME280;21790;42.668;23.298;2022-07-17T08:16:47;95289.50;;;33.09;26.02
35676;BME280;21790;42.668;23.298;2022-07-17T08:19:12;95299.16;;;33.14;25.98
35676;BME280;21790;42.668;23.298;2022-07-17T08:21:38;95281.31;;;32.60;25.56
35676;BME280;21790;42.668;23.298;2022-07-17T08:24:04;95294.50;;;32.72;26.46
35676;BME280;21790;42.668;23.298;2022-07-17T08:26:29;95290.84;;;32.99;26.36
35676;BME280;21790;42.668;23.298;2022-07-17T08:28:55;95293.13;;;33.10;25.92
35676;BME280;21790;42.668;23.298;2022-07-17T08:31:20;95287.53;;;33.12;26.12
35676;BME280;21790;42.668;23.298;2022-07-17T08:33:46;95291.25;;;33.22;25.37
35676;BME280;21790;42.668;23.298;2022-07-17T08:36:11;95293.94;;;33.20;25.80
35676;BME280;21790;42.668;23.298;2022-07-17T08:38:39;95290.09;;;33.08;25.50
35676;BME280;21790;42.668;23.298;2022-07-17T08:41:05;95287.25;;;33.08;25.20
35676;BME280;21790;42.668;23.298;2022-07-17T08:43:30;95300.72;;;33.25;26.77
35676;BME280;21790;42.668;23.298;2022-07-17T08:45:58;95298.81;;;33.37;25.92
35676;BME280;21790;42.668;23.298;2022-07-17T08:48:26;95292.78;;;33.52;25.84
35676;BME280;21790;42.668;23.298;2022-07-17T08:50:52;95295.47;;;33.50;24.93
35676;BME280;21790;42.668;23.298;2022-07-17T08:53:21;95288.50;;;33.24;25.34
35676;BME280;21790;42.668;23.298;2022-07-17T08:55:47;95284.00;;;33.21;25.78
35676;BME280;21790;42.668;23.298;2022-07-17T08:58:16;95287.63;;;33.41;25.10
35676;BME280;21790;42.668;23.298;2022-07-17T09:00:42;95280.09;;;33.45;24.71
35676;BME280;21790;42.668;23.298;2022-07-17T09:03:09;95270.72;;;33.26;25.21
35676;BME280;21790;42.668;23.298;2022-07-17T09:05:39;95270.44;;;33.41;24.92
35676;BME280;21790;42.668;23.298;2022-07-17T09:08:07;95264.59;;;33.48;24.72
35676;BME280;21790;42.668;23.298;2022-07-17T09:10:39;95273.63;;;33.64;25.24
35676;BME280;21790;42.668;23.298;2022-07-17T09:15:47;95268.81;;;33.47;24.68
35676;BME280;21790;42.668;23.298;2022-07-17T09:18:13;95267.16;;;33.54;25.06
35676;BME280;21790;42.668;23.298;2022-07-17T09:20:45;95284.84;;;33.79;25.08
35676;BME280;21790;42.668;23.298;2022-07-17T09:23:12;95283.50;;;33.71;25.12
35676;BME280;21790;42.668;23.298;2022-07-17T09:25:49;95286.47;;;33.82;24.27
35676;BME280;21790;42.668;23.298;2022-07-17T09:28:16;95284.38;;;33.73;25.36
35676;BME280;21790;42.668;23.298;2022-07-17T09:30:45;95277.88;;;33.82;25.18
35676;BME280;21790;42.668;23.298;2022-07-17T09:33:14;95257.22;;;33.84;24.42
35676;BME280;21790;42.668;23.298;2022-07-17T09:35:52;95261.09;;;33.31;24.73
35676;BME280;21790;42.668;23.298;2022-07-17T09:38:32;95266.22;;;33.32;25.97
35676;BME280;21790;42.668;23.298;2022-07-17T09:43:39;95266.69;;;33.57;25.76
35676;BME280;21790;42.668;23.298;2022-07-17T09:46:09;95277.75;;;33.80;25.90
35676;BME280;21790;42.668;23.298;2022-07-17T09:48:42;95260.25;;;33.86;25.54
35676;BME280;21790;42.668;23.298;2022-07-17T09:51:12;95268.34;;;33.99;25.52
35676;BME280;21790;42.668;23.298;2022-07-17T09:53:38;95268.34;;;33.99;25.11
35676;BME280;21790;42.668;23.298;2022-07-17T09:56:05;95271.69;;;34.15;24.75
35676;BME280;21790;42.668;23.298;2022-07-17T09:58:32;95266.69;;;34.15;23.12
35676;BME280;21790;42.668;23.298;2022-07-17T10:01:00;95265.50;;;33.99;23.31
35676;BME280;21790;42.668;23.298;2022-07-17T10:03:26;95265.94;;;34.05;23.42
35676;BME280;21790;42.668;23.298;2022-07-17T10:05:52;95272.91;;;33.83;22.94
35676;BME280;21790;42.668;23.298;2022-07-17T10:08:18;95267.63;;;33.89;23.22
35676;BME280;21790;42.668;23.298;2022-07-17T10:10:45;95269.75;;;33.98;24.05
35676;BME280;21790;42.668;23.298;2022-07-17T10:13:10;95269.56;;;34.06;23.69
35676;BME280;21790;42.668;23.298;2022-07-17T10:15:38;95261.41;;;34.12;24.03
35676;BME280;21790;42.668;23.298;2022-07-17T10:18:07;95269.25;;;34.30;23.99
35676;BME280;21790;42.668;23.298;2022-07-17T10:20:32;95265.03;;;34.12;23.83
35676;BME280;21790;42.668;23.298;2022-07-17T10:22:58;95263.66;;;33.55;24.48
35676;BME280;21790;42.668;23.298;2022-07-17T10:25:24;95260.63;;;33.25;24.53
35676;BME280;21790;42.668;23.298;2022-07-17T10:27:52;95255.53;;;33.52;24.98
35676;BME280;21790;42.668;23.298;2022-07-17T10:30:29;95251.66;;;33.76;24.17
35676;BME280;21790;42.668;23.298;2022-07-17T10:32:59;95250.84;;;33.66;24.20
35676;BME280;21790;42.668;23.298;2022-07-17T10:35:27;95262.94;;;33.65;24.29
35676;BME280;21790;42.668;23.298;2022-07-17T10:37:53;95249.84;;;33.81;23.66
35676;BME280;21790;42.668;23.298;2022-07-17T10:40:26;95240.00;;;33.84;24.45
35676;BME280;21790;42.668;23.298;2022-07-17T10:43:00;95235.47;;;33.90;23.87
35676;BME280;21790;42.668;23.298;2022-07-17T10:48:19;95250.41;;;33.89;24.38
35676;BME280;21790;42.668;23.298;2022-07-17T10:50:55;95225.97;;;33.78;23.89
35676;BME280;21790;42.668;23.298;2022-07-17T10:53:23;95236.06;;;33.89;23.08
35676;BME280;21790;42.668;23.298;2022-07-17T10:56:01;95229.78;;;33.71;23.79
35676;BME280;21790;42.668;23.298;2022-07-17T10:58:42;95235.03;;;33.75;24.43
35676;BME280;21790;42.668;23.298;2022-07-17T11:01:10;95235.78;;;33.85;24.55
35676;BME280;21790;42.668;23.298;2022-07-17T11:04:03;95234.41;;;33.95;24.67
35676;BME280;21790;42.668;23.298;2022-07-17T11:06:38;95224.16;;;34.02;24.09
35676;BME280;21790;42.668;23.298;2022-07-17T11:09:06;95226.22;;;34.11;23.83
35676;BME280;21790;42.668;23.298;2022-07-17T11:14:18;95223.16;;;34.38;23.93
35676;BME280;21790;42.668;23.298;2022-07-17T11:16:54;95229.22;;;34.32;24.34
35676;BME280;21790;42.668;23.298;2022-07-17T11:21:52;95213.94;;;33.70;23.93
35676;BME280;21790;42.668;23.298;2022-07-17T11:24:18;95213.75;;;33.78;24.26
35676;BME280;21790;42.668;23.298;2022-07-17T11:26:44;95221.19;;;33.71;24.14
35676;BME280;21790;42.668;23.298;2022-07-17T11:29:10;95220.25;;;33.69;24.11
35676;BME280;21790;42.668;23.298;2022-07-17T11:31:37;95202.59;;;33.53;24.71
35676;BME280;21790;42.668;23.298;2022-07-17T11:34:04;95213.94;;;33.70;24.11
35676;BME280;21790;42.668;23.298;2022-07-17T11:36:33;95208.31;;;33.72;23.92
35676;BME280;21790;42.668;23.298;2022-07-17T11:39:22;95203.81;;;33.79;24.13
35676;BME280;21790;42.668;23.298;2022-07-17T11:41:49;95199.28;;;33.76;24.05
35676;BME280;21790;42.668;23.298;2022-07-17T11:44:20;95201.13;;;33.71;24.60
35676;BME280;21790;42.668;23.298;2022-07-17T11:46:48;95199.59;;;33.70;24.42
35676;BME280;21790;42.668;23.298;2022-07-17T11:49:44;95185.97;;;33.90;24.57
35676;BME280;21790;42.668;23.298;2022-07-17T11:52:11;95183.56;;;33.86;24.41
35676;BME280;21790;42.668;23.298;2022-07-17T11:57:13;95186.56;;;33.98;24.64
35676;BME280;21790;42.668;23.298;2022-07-17T11:59:38;95190.16;;;34.08;24.31
35676;BME280;21790;42.668;23.298;2022-07-17T12:02:14;95184.53;;;34.29;24.30
35676;BME280;21790;42.668;23.298;2022-07-17T12:04:58;95185.47;;;34.22;25.22
35676;BME280;21790;42.668;23.298;2022-07-17T12:07:25;95197.22;;;34.17;24.76
35676;BME280;21790;42.668;23.298;2022-07-17T12:09:52;95177.63;;;34.13;24.86
35676;BME280;21790;42.668;23.298;2022-07-17T12:12:25;95184.53;;;34.29;24.21
35676;BME280;21790;42.668;23.298;2022-07-17T12:14:56;95190.41;;;34.31;24.83
35676;BME280;21790;42.668;23.298;2022-07-17T12:17:23;95180.63;;;34.15;25.34
35676;BME280;21790;42.668;23.298;2022-07-17T12:19:50;95181.78;;;34.41;24.84
35676;BME280;21790;42.668;23.298;2022-07-17T12:22:16;95182.72;;;34.34;24.47
35676;BME280;21790;42.668;23.298;2022-07-17T12:24:43;95175.91;;;34.39;24.48
35676;BME280;21790;42.668;23.298;2022-07-17T12:27:11;95180.91;;;34.29;24.98
35676;BME280;21790;42.668;23.298;2022-07-17T12:29:37;95171.72;;;34.30;24.92
35676;BME280;21790;42.668;23.298;2022-07-17T12:32:11;95165.16;;;34.39;24.97
35676;BME280;21790;42.668;23.298;2022-07-17T12:34:41;95167.34;;;34.29;24.79
35676;BME280;21790;42.668;23.298;2022-07-17T12:37:14;95167.59;;;34.33;24.76
35676;BME280;21790;42.668;23.298;2022-07-17T12:39:40;95170.19;;;34.29;24.83
35676;BME280;21790;42.668;23.298;2022-07-17T12:42:05;95170.81;;;34.18;25.36
35676;BME280;21790;42.668;23.298;2022-07-17T12:44:33;95176.56;;;34.18;25.61
35676;BME280;21790;42.668;23.298;2022-07-17T12:46:58;95178.22;;;34.12;25.72
35676;BME280;21790;42.668;23.298;2022-07-17T12:49:24;95172.69;;;34.04;26.01
35676;BME280;21790;42.668;23.298;2022-07-17T12:51:51;95171.53;;;33.59;26.41
35676;BME280;21790;42.668;23.298;2022-07-17T12:54:16;95173.34;;;33.74;26.38
35676;BME280;21790;42.668;23.298;2022-07-17T12:56:42;95163.66;;;33.79;26.16
35676;BME280;21790;42.668;23.298;2022-07-17T12:59:08;95170.75;;;33.78;26.58
35676;BME280;21790;42.668;23.298;2022-07-17T13:01:34;95166.38;;;33.86;26.40
35676;BME280;21790;42.668;23.298;2022-07-17T13:04:00;95168.78;;;33.90;26.51
35676;BME280;21790;42.668;23.298;2022-07-17T13:06:26;95167.25;;;33.89;26.25